sensor_id;sensor_type;location;lat;lon;timestamp;P1;durP1;ratioP1;P2;durP2;ratioP2
42602;SDS011;28233;55.748;48.752;2023-12-29T00:00:26;6.10;;;2.90;;
42602;SDS011;28233;55.748;48.752;2023-12-29T00:02:29;9.27;;;4.20;;
42602;SDS011;28233;55.748;48.752;2023-12-29T00:04:32;9.30;;;3.27;;
42602;SDS011;28233;55.748;48.752;2023-12-29T00:06:38;6.23;;;3.00;;
42602;SDS011;28233;55.748;48.752;2023-12-29T00:08:58;8.07;;;3.20;;
42602;SDS011;28233;55.748;48.752;2023-12-29T00:11:02;11.43;;;3.50;;
42602;SDS011;28233;55.748;48.752;2023-12-29T00:13:05;9.27;;;3.27;;
42602;SDS011;28233;55.748;48.752;2023-12-29T00:15:08;9.70;;;4.10;;
42602;SDS011;28233;55.748;48.752;2023-12-29T00:17:12;9.57;;;3.70;;
42602;SDS011;28233;55.748;48.752;2023-12-29T00:19:15;11.87;;;4.10;;
42602;SDS011;28233;55.748;48.752;2023-12-29T00:21:18;6.70;;;3.37;;
42602;SDS011;28233;55.748;48.752;2023-12-29T00:23:21;10.70;;;3.37;;
42602;SDS011;28233;55.748;48.752;2023-12-29T00:25:24;9.33;;;4.93;;
42602;SDS011;28233;55.748;48.752;2023-12-29T00:27:28;9.43;;;4.43;;
42602;SDS011;28233;55.748;48.752;2023-12-29T00:29:31;12.83;;;5.37;;
42602;SDS011;28233;55.748;48.752;2023-12-29T00:31:36;7.23;;;2.93;;
42602;SDS011;28233;55.748;48.752;2023-12-29T00:33:39;10.27;;;3.80;;
42602;SDS011;28233;55.748;48.752;2023-12-29T00:35:42;10.80;;;4.20;;
42602;SDS011;28233;55.748;48.752;2023-12-29T00:37:46;5.37;;;2.63;;
42602;SDS011;28233;55.748;48.752;2023-12-29T00:39:48;10.13;;;3.93;;
42602;SDS011;28233;55.748;48.752;2023-12-29T00:41:51;12.97;;;4.77;;
42602;SDS011;28233;55.748;48.752;2023-12-29T00:43:54;9.87;;;3.53;;
42602;SDS011;28233;55.748;48.752;2023-12-29T00:45:57;5.57;;;2.77;;
42602;SDS011;28233;55.748;48.752;2023-12-29T00:48:00;7.83;;;3.67;;
42602;SDS011;28233;55.748;48.752;2023-12-29T00:50:03;6.57;;;3.70;;
42602;SDS011;28233;55.748;48.752;2023-12-29T00:52:07;10.00;;;3.93;;
42602;SDS011;28233;55.748;48.752;2023-12-29T00:54:10;10.13;;;4.90;;
42602;SDS011;28233;55.748;48.752;2023-12-29T00:56:13;9.47;;;3.50;;
42602;SDS011;28233;55.748;48.752;2023-12-29T00:58:16;9.50;;;4.13;;
42602;SDS011;28233;55.748;48.752;2023-12-29T01:00:18;8.27;;;3.17;;
42602;SDS011;28233;55.748;48.752;2023-12-29T01:02:21;9.27;;;2.93;;
42602;SDS011;28233;55.748;48.752;2023-12-29T01:04:25;10.37;;;3.23;;
42602;SDS011;28233;55.748;48.752;2023-12-29T01:06:28;6.77;;;3.63;;
42602;SDS011;28233;55.748;48.752;2023-12-29T01:08:31;9.80;;;4.17;;
42602;SDS011;28233;55.748;48.752;2023-12-29T01:10:35;11.97;;;3.70;;
42602;SDS011;28233;55.748;48.752;2023-12-29T01:12:38;7.37;;;3.40;;
42602;SDS011;28233;55.748;48.752;2023-12-29T01:14:41;9.33;;;3.80;;
42602;SDS011;28233;55.748;48.752;2023-12-29T01:16:44;4.13;;;2.97;;
42602;SDS011;28233;55.748;48.752;2023-12-29T01:18:47;7.43;;;2.83;;
42602;SDS011;28233;55.748;48.752;2023-12-29T01:20:50;9.30;;;2.60;;
42602;SDS011;28233;55.748;48.752;2023-12-29T01:22:53;6.03;;;3.50;;
42602;SDS011;28233;55.748;48.752;2023-12-29T01:24:58;10.37;;;4.43;;
42602;SDS011;28233;55.748;48.752;2023-12-29T01:27:05;8.27;;;3.43;;
42602;SDS011;28233;55.748;48.752;2023-12-29T01:29:08;8.23;;;3.77;;
42602;SDS011;28233;55.748;48.752;2023-12-29T01:31:11;7.17;;;3.67;;
42602;SDS011;28233;55.748;48.752;2023-12-29T01:33:15;7.13;;;3.70;;
42602;SDS011;28233;55.748;48.752;2023-12-29T01:35:19;5.43;;;3.28;;
42602;SDS011;28233;55.748;48.752;2023-12-29T01:37:22;9.57;;;3.57;;
42602;SDS011;28233;55.748;48.752;2023-12-29T01:39:24;9.50;;;3.93;;
42602;SDS011;28233;55.748;48.752;2023-12-29T01:41:28;8.68;;;4.53;;
42602;SDS011;28233;55.748;48.752;2023-12-29T01:43:32;8.20;;;3.83;;
42602;SDS011;28233;55.748;48.752;2023-12-29T01:45:35;9.93;;;4.20;;
42602;SDS011;28233;55.748;48.752;2023-12-29T01:47:53;7.43;;;4.17;;
42602;SDS011;28233;55.748;48.752;2023-12-29T01:49:56;5.97;;;3.17;;
42602;SDS011;28233;55.748;48.752;2023-12-29T01:52:00;7.30;;;3.53;;
42602;SDS011;28233;55.748;48.752;2023-12-29T01:54:04;7.93;;;3.50;;
42602;SDS011;28233;55.748;48.752;2023-12-29T01:56:07;7.72;;;2.90;;
42602;SDS011;28233;55.748;48.752;2023-12-29T01:58:11;9.43;;;3.13;;
42602;SDS011;28233;55.748;48.752;2023-12-29T02:00:14;7.50;;;3.70;;
42602;SDS011;28233;55.748;48.752;2023-12-29T02:02:19;7.40;;;3.37;;
42602;SDS011;28233;55.748;48.752;2023-12-29T02:04:23;9.50;;;3.53;;
42602;SDS011;28233;55.748;48.752;2023-12-29T02:06:28;5.47;;;3.17;;
42602;SDS011;28233;55.748;48.752;2023-12-29T02:08:31;6.10;;;2.67;;
42602;SDS011;28233;55.748;48.752;2023-12-29T02:10:35;7.20;;;3.85;;
42602;SDS011;28233;55.748;48.752;2023-12-29T02:12:38;7.30;;;2.77;;
42602;SDS011;28233;55.748;48.752;2023-12-29T02:14:41;7.88;;;3.92;;
42602;SDS011;28233;55.748;48.752;2023-12-29T02:21:43;8.15;;;3.00;;
42602;SDS011;28233;55.748;48.752;2023-12-29T02:23:46;8.10;;;3.10;;
42602;SDS011;28233;55.748;48.752;2023-12-29T02:25:48;7.35;;;2.95;;
42602;SDS011;28233;55.748;48.752;2023-12-29T02:27:55;9.07;;;2.67;;
42602;SDS011;28233;55.748;48.752;2023-12-29T02:30:08;7.88;;;3.63;;
42602;SDS011;28233;55.748;48.752;2023-12-29T02:32:30;6.45;;;3.30;;
42602;SDS011;28233;55.748;48.752;2023-12-29T02:34:35;8.57;;;3.90;;
42602;SDS011;28233;55.748;48.752;2023-12-29T02:36:41;5.88;;;2.70;;
42602;SDS011;28233;55.748;48.752;2023-12-29T02:38:45;7.15;;;2.88;;
42602;SDS011;28233;55.748;48.752;2023-12-29T02:40:48;6.03;;;3.35;;
42602;SDS011;28233;55.748;48.752;2023-12-29T02:42:51;7.47;;;4.03;;
42602;SDS011;28233;55.748;48.752;2023-12-29T02:44:54;6.70;;;3.55;;
42602;SDS011;28233;55.748;48.752;2023-12-29T02:46:57;6.55;;;2.72;;
42602;SDS011;28233;55.748;48.752;2023-12-29T02:49:02;6.80;;;3.38;;
42602;SDS011;28233;55.748;48.752;2023-12-29T02:51:05;7.23;;;4.03;;
42602;SDS011;28233;55.748;48.752;2023-12-29T02:53:08;7.45;;;3.15;;
42602;SDS011;28233;55.748;48.752;2023-12-29T02:55:11;7.38;;;4.05;;
42602;SDS011;28233;55.748;48.752;2023-12-29T02:57:13;5.10;;;2.22;;
42602;SDS011;28233;55.748;48.752;2023-12-29T02:59:16;4.70;;;2.90;;
42602;SDS011;28233;55.748;48.752;2023-12-29T03:01:19;7.70;;;3.50;;
42602;SDS011;28233;55.748;48.752;2023-12-29T03:03:22;7.47;;;3.40;;
42602;SDS011;28233;55.748;48.752;2023-12-29T03:05:25;7.57;;;3.45;;
42602;SDS011;28233;55.748;48.752;2023-12-29T03:07:28;7.85;;;3.80;;
42602;SDS011;28233;55.748;48.752;2023-12-29T03:09:30;4.43;;;3.10;;
42602;SDS011;28233;55.748;48.752;2023-12-29T03:11:33;7.68;;;3.03;;
42602;SDS011;28233;55.748;48.752;2023-12-29T03:13:36;6.03;;;3.85;;
42602;SDS011;28233;55.748;48.752;2023-12-29T03:15:39;5.32;;;2.85;;
42602;SDS011;28233;55.748;48.752;2023-12-29T03:17:42;7.45;;;2.88;;
42602;SDS011;28233;55.748;48.752;2023-12-29T03:19:45;7.73;;;3.07;;
42602;SDS011;28233;55.748;48.752;2023-12-29T03:21:48;6.80;;;2.70;;
42602;SDS011;28233;55.748;48.752;2023-12-29T03:23:51;5.75;;;2.42;;
42602;SDS011;28233;55.748;48.752;2023-12-29T03:25:54;4.32;;;2.42;;
42602;SDS011;28233;55.748;48.752;2023-12-29T03:27:57;4.90;;;2.22;;
42602;SDS011;28233;55.748;48.752;2023-12-29T03:30:01;6.65;;;2.88;;
42602;SDS011;28233;55.748;48.752;2023-12-29T03:32:05;5.30;;;2.50;;
42602;SDS011;28233;55.748;48.752;2023-12-29T03:34:09;4.43;;;2.13;;
42602;SDS011;28233;55.748;48.752;2023-12-29T03:36:12;5.20;;;2.55;;
42602;SDS011;28233;55.748;48.752;2023-12-29T03:38:15;6.57;;;2.07;;
42602;SDS011;28233;55.748;48.752;2023-12-29T03:40:18;4.57;;;2.65;;
42602;SDS011;28233;55.748;48.752;2023-12-29T03:42:21;4.97;;;2.40;;
42602;SDS011;28233;55.748;48.752;2023-12-29T03:44:24;4.45;;;2.28;;
42602;SDS011;28233;55.748;48.752;2023-12-29T03:46:27;4.35;;;2.15;;
42602;SDS011;28233;55.748;48.752;2023-12-29T03:48:30;5.70;;;3.63;;
42602;SDS011;28233;55.748;48.752;2023-12-29T03:50:33;5.07;;;2.50;;
42602;SDS011;28233;55.748;48.752;2023-12-29T03:52:36;2.65;;;1.95;;
42602;SDS011;28233;55.748;48.752;2023-12-29T03:54:38;4.63;;;2.00;;
42602;SDS011;28233;55.748;48.752;2023-12-29T03:56:41;3.45;;;2.22;;
42602;SDS011;28233;55.748;48.752;2023-12-29T03:58:45;4.47;;;1.97;;
42602;SDS011;28233;55.748;48.752;2023-12-29T04:00:48;3.95;;;2.38;;
42602;SDS011;28233;55.748;48.752;2023-12-29T04:02:51;4.93;;;2.55;;
42602;SDS011;28233;55.748;48.752;2023-12-29T04:04:54;15.43;;;2.35;;
42602;SDS011;28233;55.748;48.752;2023-12-29T04:06:57;3.20;;;1.85;;
42602;SDS011;28233;55.748;48.752;2023-12-29T04:09:00;7.30;;;2.70;;
42602;SDS011;28233;55.748;48.752;2023-12-29T04:11:03;1.52;;;1.38;;
42602;SDS011;28233;55.748;48.752;2023-12-29T04:13:06;3.37;;;2.10;;
42602;SDS011;28233;55.748;48.752;2023-12-29T04:15:09;3.40;;;1.98;;
42602;SDS011;28233;55.748;48.752;2023-12-29T04:17:12;3.97;;;1.80;;
42602;SDS011;28233;55.748;48.752;2023-12-29T04:19:16;5.20;;;1.90;;
42602;SDS011;28233;55.748;48.752;2023-12-29T04:21:19;2.85;;;1.58;;
42602;SDS011;28233;55.748;48.752;2023-12-29T04:23:22;3.50;;;2.15;;
42602;SDS011;28233;55.748;48.752;2023-12-29T04:25:25;2.30;;;2.10;;
42602;SDS011;28233;55.748;48.752;2023-12-29T04:27:28;3.30;;;2.13;;
42602;SDS011;28233;55.748;48.752;2023-12-29T04:29:31;2.25;;;1.42;;
42602;SDS011;28233;55.748;48.752;2023-12-29T04:31:34;2.72;;;1.88;;
42602;SDS011;28233;55.748;48.752;2023-12-29T04:33:37;2.25;;;1.65;;
42602;SDS011;28233;55.748;48.752;2023-12-29T04:35:40;3.53;;;1.55;;
42602;SDS011;28233;55.748;48.752;2023-12-29T04:37:44;2.90;;;1.35;;
42602;SDS011;28233;55.748;48.752;2023-12-29T04:39:48;2.20;;;1.60;;
42602;SDS011;28233;55.748;48.752;2023-12-29T04:41:52;2.40;;;1.75;;
42602;SDS011;28233;55.748;48.752;2023-12-29T04:43:55;3.53;;;2.23;;
42602;SDS011;28233;55.748;48.752;2023-12-29T04:45:57;3.38;;;1.52;;
42602;SDS011;28233;55.748;48.752;2023-12-29T04:48:00;2.60;;;1.52;;
42602;SDS011;28233;55.748;48.752;2023-12-29T04:50:04;3.67;;;2.00;;
42602;SDS011;28233;55.748;48.752;2023-12-29T04:52:10;2.50;;;1.63;;
42602;SDS011;28233;55.748;48.752;2023-12-29T04:54:14;2.50;;;1.57;;
42602;SDS011;28233;55.748;48.752;2023-12-29T04:56:17;2.30;;;1.60;;
42602;SDS011;28233;55.748;48.752;2023-12-29T04:58:20;3.28;;;1.90;;
42602;SDS011;28233;55.748;48.752;2023-12-29T05:00:23;2.55;;;1.52;;
42602;SDS011;28233;55.748;48.752;2023-12-29T05:02:26;4.20;;;1.93;;
42602;SDS011;28233;55.748;48.752;2023-12-29T05:04:29;3.93;;;2.33;;
42602;SDS011;28233;55.748;48.752;2023-12-29T05:06:32;5.15;;;2.25;;
42602;SDS011;28233;55.748;48.752;2023-12-29T05:08:35;3.60;;;1.73;;
42602;SDS011;28233;55.748;48.752;2023-12-29T05:10:37;3.42;;;1.70;;
42602;SDS011;28233;55.748;48.752;2023-12-29T05:12:40;2.17;;;1.98;;
42602;SDS011;28233;55.748;48.752;2023-12-29T05:14:43;2.88;;;1.73;;
42602;SDS011;28233;55.748;48.752;2023-12-29T05:16:46;3.20;;;2.03;;
42602;SDS011;28233;55.748;48.752;2023-12-29T05:18:49;3.75;;;2.00;;
42602;SDS011;28233;55.748;48.752;2023-12-29T05:20:53;3.80;;;2.47;;
42602;SDS011;28233;55.748;48.752;2023-12-29T05:22:55;3.58;;;1.60;;
42602;SDS011;28233;55.748;48.752;2023-12-29T05:24:58;4.03;;;2.28;;
42602;SDS011;28233;55.748;48.752;2023-12-29T05:27:05;3.08;;;2.08;;
42602;SDS011;28233;55.748;48.752;2023-12-29T05:29:08;3.08;;;1.65;;
42602;SDS011;28233;55.748;48.752;2023-12-29T05:31:11;3.40;;;2.05;;
42602;SDS011;28233;55.748;48.752;2023-12-29T05:33:14;3.65;;;1.67;;
42602;SDS011;28233;55.748;48.752;2023-12-29T05:35:17;2.17;;;1.55;;
42602;SDS011;28233;55.748;48.752;2023-12-29T05:37:19;4.22;;;2.03;;
42602;SDS011;28233;55.748;48.752;2023-12-29T05:39:22;3.50;;;1.80;;
42602;SDS011;28233;55.748;48.752;2023-12-29T05:41:25;3.92;;;1.80;;
42602;SDS011;28233;55.748;48.752;2023-12-29T05:43:28;3.13;;;1.80;;
42602;SDS011;28233;55.748;48.752;2023-12-29T05:45:31;4.97;;;2.00;;
42602;SDS011;28233;55.748;48.752;2023-12-29T05:47:34;3.78;;;1.90;;
42602;SDS011;28233;55.748;48.752;2023-12-29T05:49:37;4.57;;;1.77;;
42602;SDS011;28233;55.748;48.752;2023-12-29T05:51:42;4.80;;;2.13;;
42602;SDS011;28233;55.748;48.752;2023-12-29T05:53:47;2.65;;;1.65;;
42602;SDS011;28233;55.748;48.752;2023-12-29T05:55:49;3.58;;;2.10;;
42602;SDS011;28233;55.748;48.752;2023-12-29T05:57:52;2.55;;;1.75;;
42602;SDS011;28233;55.748;48.752;2023-12-29T05:59:55;2.95;;;1.73;;
42602;SDS011;28233;55.748;48.752;2023-12-29T06:01:58;3.20;;;1.55;;
42602;SDS011;28233;55.748;48.752;2023-12-29T06:04:01;2.97;;;2.13;;
42602;SDS011;28233;55.748;48.752;2023-12-29T06:06:04;2.08;;;1.25;;
42602;SDS011;28233;55.748;48.752;2023-12-29T06:08:07;5.15;;;2.22;;
42602;SDS011;28233;55.748;48.752;2023-12-29T06:10:10;3.23;;;1.87;;
42602;SDS011;28233;55.748;48.752;2023-12-29T06:12:14;4.55;;;2.03;;
42602;SDS011;28233;55.748;48.752;2023-12-29T06:14:16;3.10;;;1.83;;
42602;SDS011;28233;55.748;48.752;2023-12-29T06:16:20;2.72;;;1.52;;
42602;SDS011;28233;55.748;48.752;2023-12-29T06:18:23;3.10;;;1.85;;
42602;SDS011;28233;55.748;48.752;2023-12-29T06:20:26;4.05;;;2.10;;
42602;SDS011;28233;55.748;48.752;2023-12-29T06:22:29;3.27;;;2.13;;
42602;SDS011;28233;55.748;48.752;2023-12-29T06:24:32;3.90;;;2.10;;
42602;SDS011;28233;55.748;48.752;2023-12-29T06:26:36;2.97;;;1.60;;
42602;SDS011;28233;55.748;48.752;2023-12-29T06:28:44;3.08;;;1.67;;
42602;SDS011;28233;55.748;48.752;2023-12-29T06:30:48;2.35;;;1.15;;
42602;SDS011;28233;55.748;48.752;2023-12-29T06:32:51;5.68;;;2.00;;
42602;SDS011;28233;55.748;48.752;2023-12-29T06:34:54;3.60;;;1.73;;
42602;SDS011;28233;55.748;48.752;2023-12-29T06:36:57;2.83;;;1.63;;
42602;SDS011;28233;55.748;48.752;2023-12-29T06:39:00;4.35;;;2.47;;
42602;SDS011;28233;55.748;48.752;2023-12-29T06:41:03;3.28;;;1.77;;
42602;SDS011;28233;55.748;48.752;2023-12-29T06:43:06;3.38;;;1.77;;
42602;SDS011;28233;55.748;48.752;2023-12-29T06:45:09;2.55;;;1.73;;
42602;SDS011;28233;55.748;48.752;2023-12-29T06:47:12;3.55;;;1.70;;
42602;SDS011;28233;55.748;48.752;2023-12-29T06:49:15;4.43;;;2.33;;
42602;SDS011;28233;55.748;48.752;2023-12-29T06:51:18;5.72;;;2.28;;
42602;SDS011;28233;55.748;48.752;2023-12-29T06:53:21;5.05;;;1.83;;
42602;SDS011;28233;55.748;48.752;2023-12-29T06:55:24;5.78;;;1.83;;
42602;SDS011;28233;55.748;48.752;2023-12-29T06:57:28;5.90;;;2.45;;
42602;SDS011;28233;55.748;48.752;2023-12-29T06:59:31;3.83;;;2.63;;
42602;SDS011;28233;55.748;48.752;2023-12-29T07:01:34;3.67;;;2.10;;
42602;SDS011;28233;55.748;48.752;2023-12-29T07:03:42;2.83;;;1.52;;
42602;SDS011;28233;55.748;48.752;2023-12-29T07:05:45;2.95;;;2.22;;
42602;SDS011;28233;55.748;48.752;2023-12-29T07:07:48;3.33;;;1.70;;
42602;SDS011;28233;55.748;48.752;2023-12-29T07:09:51;4.60;;;2.38;;
42602;SDS011;28233;55.748;48.752;2023-12-29T07:11:54;3.50;;;1.80;;
42602;SDS011;28233;55.748;48.752;2023-12-29T07:13:56;3.47;;;2.15;;
42602;SDS011;28233;55.748;48.752;2023-12-29T07:15:59;3.78;;;2.80;;
42602;SDS011;28233;55.748;48.752;2023-12-29T07:18:02;3.72;;;2.17;;
42602;SDS011;28233;55.748;48.752;2023-12-29T07:20:06;5.38;;;2.40;;
42602;SDS011;28233;55.748;48.752;2023-12-29T07:22:09;6.80;;;2.20;;
42602;SDS011;28233;55.748;48.752;2023-12-29T07:24:12;3.15;;;2.40;;
42602;SDS011;28233;55.748;48.752;2023-12-29T07:26:15;5.20;;;2.30;;
42602;SDS011;28233;55.748;48.752;2023-12-29T07:28:18;4.22;;;2.13;;
42602;SDS011;28233;55.748;48.752;2023-12-29T07:30:21;4.95;;;2.65;;
42602;SDS011;28233;55.748;48.752;2023-12-29T07:32:24;5.32;;;1.90;;
42602;SDS011;28233;55.748;48.752;2023-12-29T07:34:27;5.20;;;2.30;;
42602;SDS011;28233;55.748;48.752;2023-12-29T07:36:30;4.53;;;2.20;;
42602;SDS011;28233;55.748;48.752;2023-12-29T07:38:33;3.58;;;2.03;;
42602;SDS011;28233;55.748;48.752;2023-12-29T07:40:36;3.53;;;2.45;;
42602;SDS011;28233;55.748;48.752;2023-12-29T07:42:39;4.30;;;2.10;;
42602;SDS011;28233;55.748;48.752;2023-12-29T07:44:43;3.95;;;2.05;;
42602;SDS011;28233;55.748;48.752;2023-12-29T07:46:48;4.10;;;2.00;;
42602;SDS011;28233;55.748;48.752;2023-12-29T07:48:52;4.15;;;1.90;;
42602;SDS011;28233;55.748;48.752;2023-12-29T07:51:04;4.22;;;2.13;;
42602;SDS011;28233;55.748;48.752;2023-12-29T07:53:07;5.35;;;2.28;;
42602;SDS011;28233;55.748;48.752;2023-12-29T07:55:10;4.20;;;2.42;;
42602;SDS011;28233;55.748;48.752;2023-12-29T07:57:15;3.13;;;2.08;;
42602;SDS011;28233;55.748;48.752;2023-12-29T07:59:25;4.28;;;1.98;;
42602;SDS011;28233;55.748;48.752;2023-12-29T08:01:30;3.33;;;1.65;;
42602;SDS011;28233;55.748;48.752;2023-12-29T08:03:42;4.05;;;2.22;;
42602;SDS011;28233;55.748;48.752;2023-12-29T08:05:47;4.35;;;2.58;;
42602;SDS011;28233;55.748;48.752;2023-12-29T08:07:51;4.18;;;2.10;;
42602;SDS011;28233;55.748;48.752;2023-12-29T08:09:54;4.40;;;2.38;;
42602;SDS011;28233;55.748;48.752;2023-12-29T08:11:56;3.80;;;2.10;;
42602;SDS011;28233;55.748;48.752;2023-12-29T08:13:59;2.85;;;2.05;;
42602;SDS011;28233;55.748;48.752;2023-12-29T08:16:02;5.60;;;2.33;;
42602;SDS011;28233;55.748;48.752;2023-12-29T08:18:06;4.68;;;2.63;;
42602;SDS011;28233;55.748;48.752;2023-12-29T08:20:09;4.55;;;2.55;;
42602;SDS011;28233;55.748;48.752;2023-12-29T08:22:12;3.63;;;2.13;;
42602;SDS011;28233;55.748;48.752;2023-12-29T08:24:15;5.82;;;2.60;;
42602;SDS011;28233;55.748;48.752;2023-12-29T08:26:19;4.38;;;1.88;;
42602;SDS011;28233;55.748;48.752;2023-12-29T08:28:22;3.90;;;2.25;;
42602;SDS011;28233;55.748;48.752;2023-12-29T08:30:25;3.15;;;1.80;;
42602;SDS011;28233;55.748;48.752;2023-12-29T08:32:28;5.72;;;1.98;;
42602;SDS011;28233;55.748;48.752;2023-12-29T08:34:32;3.05;;;2.03;;
42602;SDS011;28233;55.748;48.752;2023-12-29T08:36:47;4.00;;;2.70;;
42602;SDS011;28233;55.748;48.752;2023-12-29T08:38:51;4.65;;;1.77;;
42602;SDS011;28233;55.748;48.752;2023-12-29T08:40:59;2.83;;;1.85;;
42602;SDS011;28233;55.748;48.752;2023-12-29T08:43:10;3.65;;;2.13;;
42602;SDS011;28233;55.748;48.752;2023-12-29T08:45:13;3.15;;;1.75;;
42602;SDS011;28233;55.748;48.752;2023-12-29T08:47:16;3.92;;;1.85;;
42602;SDS011;28233;55.748;48.752;2023-12-29T08:49:25;4.13;;;2.08;;
42602;SDS011;28233;55.748;48.752;2023-12-29T08:51:28;3.63;;;1.85;;
42602;SDS011;28233;55.748;48.752;2023-12-29T08:53:32;4.90;;;2.30;;
42602;SDS011;28233;55.748;48.752;2023-12-29T08:55:41;2.65;;;1.50;;
42602;SDS011;28233;55.748;48.752;2023-12-29T08:57:51;4.38;;;2.30;;
42602;SDS011;28233;55.748;48.752;2023-12-29T09:00:08;5.13;;;2.05;;
42602;SDS011;28233;55.748;48.752;2023-12-29T09:02:14;2.88;;;1.85;;
42602;SDS011;28233;55.748;48.752;2023-12-29T09:04:23;3.83;;;2.42;;
42602;SDS011;28233;55.748;48.752;2023-12-29T09:06:31;4.20;;;2.15;;
42602;SDS011;28233;55.748;48.752;2023-12-29T09:08:35;6.85;;;3.05;;
42602;SDS011;28233;55.748;48.752;2023-12-29T09:10:39;3.28;;;1.80;;
42602;SDS011;28233;55.748;48.752;2023-12-29T09:12:50;2.92;;;2.00;;
42602;SDS011;28233;55.748;48.752;2023-12-29T09:14:53;3.10;;;1.45;;
42602;SDS011;28233;55.748;48.752;2023-12-29T09:16:56;4.13;;;2.10;;
42602;SDS011;28233;55.748;48.752;2023-12-29T09:18:59;3.63;;;1.63;;
42602;SDS011;28233;55.748;48.752;2023-12-29T09:21:04;3.33;;;2.00;;
42602;SDS011;28233;55.748;48.752;2023-12-29T09:23:07;5.80;;;2.53;;
42602;SDS011;28233;55.748;48.752;2023-12-29T09:25:10;3.28;;;1.77;;
42602;SDS011;28233;55.748;48.752;2023-12-29T09:27:14;2.30;;;1.73;;
42602;SDS011;28233;55.748;48.752;2023-12-29T09:29:18;6.15;;;2.30;;
42602;SDS011;28233;55.748;48.752;2023-12-29T09:31:25;3.13;;;2.05;;
42602;SDS011;28233;55.748;48.752;2023-12-29T09:33:28;3.70;;;2.08;;
42602;SDS011;28233;55.748;48.752;2023-12-29T09:35:31;5.55;;;2.63;;
42602;SDS011;28233;55.748;48.752;2023-12-29T09:37:37;3.55;;;2.10;;
42602;SDS011;28233;55.748;48.752;2023-12-29T09:39:42;5.45;;;2.70;;
42602;SDS011;28233;55.748;48.752;2023-12-29T09:41:47;3.10;;;2.10;;
42602;SDS011;28233;55.748;48.752;2023-12-29T09:43:56;5.00;;;2.40;;
42602;SDS011;28233;55.748;48.752;2023-12-29T09:46:06;5.40;;;2.92;;
42602;SDS011;28233;55.748;48.752;2023-12-29T09:48:16;4.30;;;2.28;;
42602;SDS011;28233;55.748;48.752;2023-12-29T09:50:31;4.70;;;2.55;;
42602;SDS011;28233;55.748;48.752;2023-12-29T09:52:56;2.92;;;1.52;;
42602;SDS011;28233;55.748;48.752;2023-12-29T09:55:01;7.13;;;2.53;;
42602;SDS011;28233;55.748;48.752;2023-12-29T09:57:06;4.25;;;2.50;;
42602;SDS011;28233;55.748;48.752;2023-12-29T09:59:10;3.15;;;1.80;;
42602;SDS011;28233;55.748;48.752;2023-12-29T10:01:14;3.17;;;1.70;;
42602;SDS011;28233;55.748;48.752;2023-12-29T10:03:21;4.95;;;2.45;;
42602;SDS011;28233;55.748;48.752;2023-12-29T10:05:24;4.85;;;2.50;;
42602;SDS011;28233;55.748;48.752;2023-12-29T10:07:27;5.05;;;2.78;;
42602;SDS011;28233;55.748;48.752;2023-12-29T10:09:33;5.45;;;2.55;;
42602;SDS011;28233;55.748;48.752;2023-12-29T10:11:39;3.85;;;2.25;;
42602;SDS011;28233;55.748;48.752;2023-12-29T10:13:45;6.30;;;3.05;;
42602;SDS011;28233;55.748;48.752;2023-12-29T10:15:56;5.30;;;2.42;;
42602;SDS011;28233;55.748;48.752;2023-12-29T10:20:39;4.10;;;2.15;;
42602;SDS011;28233;55.748;48.752;2023-12-29T10:22:54;3.67;;;2.35;;
42602;SDS011;28233;55.748;48.752;2023-12-29T10:25:09;8.85;;;3.05;;
42602;SDS011;28233;55.748;48.752;2023-12-29T10:27:12;3.22;;;1.90;;
42602;SDS011;28233;55.748;48.752;2023-12-29T10:29:16;4.50;;;2.00;;
42602;SDS011;28233;55.748;48.752;2023-12-29T10:31:23;3.20;;;2.03;;
42602;SDS011;28233;55.748;48.752;2023-12-29T10:33:26;3.30;;;1.98;;
42602;SDS011;28233;55.748;48.752;2023-12-29T10:35:31;4.60;;;2.40;;
42602;SDS011;28233;55.748;48.752;2023-12-29T10:37:37;2.42;;;2.05;;
42602;SDS011;28233;55.748;48.752;2023-12-29T10:39:54;3.75;;;2.80;;
42602;SDS011;28233;55.748;48.752;2023-12-29T10:42:02;3.58;;;2.15;;
42602;SDS011;28233;55.748;48.752;2023-12-29T10:44:10;4.30;;;2.17;;
42602;SDS011;28233;55.748;48.752;2023-12-29T10:46:13;6.75;;;2.47;;
42602;SDS011;28233;55.748;48.752;2023-12-29T10:48:21;3.50;;;2.05;;
42602;SDS011;28233;55.748;48.752;2023-12-29T10:50:27;3.53;;;1.92;;
42602;SDS011;28233;55.748;48.752;2023-12-29T10:52:31;4.53;;;2.40;;
42602;SDS011;28233;55.748;48.752;2023-12-29T10:54:35;4.85;;;2.38;;
42602;SDS011;28233;55.748;48.752;2023-12-29T10:56:38;8.77;;;3.42;;
42602;SDS011;28233;55.748;48.752;2023-12-29T10:58:41;5.85;;;2.92;;
42602;SDS011;28233;55.748;48.752;2023-12-29T11:00:45;5.22;;;2.40;;
42602;SDS011;28233;55.748;48.752;2023-12-29T11:02:53;6.00;;;2.60;;
42602;SDS011;28233;55.748;48.752;2023-12-29T11:05:06;4.13;;;2.58;;
42602;SDS011;28233;55.748;48.752;2023-12-29T11:07:12;2.70;;;2.10;;
42602;SDS011;28233;55.748;48.752;2023-12-29T11:09:40;8.27;;;2.33;;
42602;SDS011;28233;55.748;48.752;2023-12-29T11:11:39;6.00;;;2.85;;
42602;SDS011;28233;55.748;48.752;2023-12-29T11:13:42;5.80;;;2.75;;
42602;SDS011;28233;55.748;48.752;2023-12-29T11:15:45;4.78;;;2.42;;
42602;SDS011;28233;55.748;48.752;2023-12-29T11:17:49;4.47;;;2.45;;
42602;SDS011;28233;55.748;48.752;2023-12-29T11:19:54;4.50;;;2.00;;
42602;SDS011;28233;55.748;48.752;2023-12-29T11:22:00;5.22;;;2.38;;
42602;SDS011;28233;55.748;48.752;2023-12-29T11:24:05;6.35;;;2.53;;
42602;SDS011;28233;55.748;48.752;2023-12-29T11:26:08;3.85;;;2.42;;
42602;SDS011;28233;55.748;48.752;2023-12-29T11:28:11;6.03;;;2.83;;
42602;SDS011;28233;55.748;48.752;2023-12-29T11:30:14;5.30;;;2.90;;
42602;SDS011;28233;55.748;48.752;2023-12-29T11:32:20;4.57;;;2.97;;
42602;SDS011;28233;55.748;48.752;2023-12-29T11:34:33;4.05;;;2.30;;
42602;SDS011;28233;55.748;48.752;2023-12-29T11:36:39;4.35;;;2.50;;
42602;SDS011;28233;55.748;48.752;2023-12-29T11:39:04;5.38;;;2.55;;
42602;SDS011;28233;55.748;48.752;2023-12-29T11:41:19;3.85;;;2.25;;
42602;SDS011;28233;55.748;48.752;2023-12-29T11:43:30;4.07;;;2.70;;
42602;SDS011;28233;55.748;48.752;2023-12-29T11:45:34;4.18;;;2.30;;
42602;SDS011;28233;55.748;48.752;2023-12-29T11:47:38;3.13;;;2.67;;
42602;SDS011;28233;55.748;48.752;2023-12-29T11:49:57;4.25;;;2.75;;
42602;SDS011;28233;55.748;48.752;2023-12-29T11:52:08;7.35;;;2.70;;
42602;SDS011;28233;55.748;48.752;2023-12-29T11:54:21;4.03;;;2.15;;
42602;SDS011;28233;55.748;48.752;2023-12-29T11:56:34;3.75;;;2.15;;
42602;SDS011;28233;55.748;48.752;2023-12-29T11:58:43;5.03;;;2.50;;
42602;SDS011;28233;55.748;48.752;2023-12-29T12:00:46;4.93;;;2.03;;
42602;SDS011;28233;55.748;48.752;2023-12-29T12:02:49;4.15;;;2.42;;
42602;SDS011;28233;55.748;48.752;2023-12-29T12:04:53;4.78;;;2.05;;
42602;SDS011;28233;55.748;48.752;2023-12-29T12:06:56;7.97;;;2.35;;
42602;SDS011;28233;55.748;48.752;2023-12-29T12:13:45;5.25;;;2.78;;
42602;SDS011;28233;55.748;48.752;2023-12-29T12:15:49;3.97;;;2.38;;
42602;SDS011;28233;55.748;48.752;2023-12-29T12:17:52;5.80;;;2.63;;
42602;SDS011;28233;55.748;48.752;2023-12-29T12:19:56;3.58;;;2.42;;
42602;SDS011;28233;55.748;48.752;2023-12-29T12:22:00;4.68;;;2.83;;
42602;SDS011;28233;55.748;48.752;2023-12-29T12:24:05;3.70;;;2.63;;
42602;SDS011;28233;55.748;48.752;2023-12-29T12:26:08;4.72;;;2.42;;
42602;SDS011;28233;55.748;48.752;2023-12-29T12:28:13;4.15;;;2.42;;
42602;SDS011;28233;55.748;48.752;2023-12-29T12:30:20;4.40;;;2.85;;